Pilot Knob, New York
Current Conditions -  °F | °C
As of 2:53 AM on Friday 19 Dec 2014 (Local Time) from KGFL Reporting Station
Overcast Overcast  
Wind Chill: 25°   Ceiling: 4500
Heat Index: 31°   Visibility: 10mi
Dew Point: 22°   Wind: 6mph
Humidity: 69%   Direction: 330°NNW
Pressure: 29.94"   Gusts: NA
Location:  43.5149°N, 73.6285°W
Report Text: KGFL 190753Z AUTO 33005KT 10SM FEW030 OVC045 M01/M06 A2994 RMK AO2 SLP147 T10061056
Loading
Personal Weather Stations






























Interactive Weather Map New forecast layout! Learn more

10-Day Weather Forecast

Advertisements
Track Severe Weather on mobile